sensor_id;sensor_type;location;lat;lon;timestamp;temperature;humidity
19580;DHT22;9936;51.040;13.918;2023-11-22T00:02:34;3.20;99.90
19580;DHT22;9936;51.040;13.918;2023-11-22T00:06:20;3.20;99.90
19580;DHT22;9936;51.040;13.918;2023-11-22T00:10:08;3.20;99.90
19580;DHT22;9936;51.040;13.918;2023-11-22T00:13:54;3.20;99.90
19580;DHT22;9936;51.040;13.918;2023-11-22T00:17:41;3.20;99.90
19580;DHT22;9936;51.040;13.918;2023-11-22T00:21:26;3.10;99.90
19580;DHT22;9936;51.040;13.918;2023-11-22T00:25:12;3.10;99.90
19580;DHT22;9936;51.040;13.918;2023-11-22T00:28:59;2.80;99.90
19580;DHT22;9936;51.040;13.918;2023-11-22T00:32:44;2.90;99.90
19580;DHT22;9936;51.040;13.918;2023-11-22T00:36:30;2.80;99.90
19580;DHT22;9936;51.040;13.918;2023-11-22T00:40:16;2.80;99.90
19580;DHT22;9936;51.040;13.918;2023-11-22T00:44:01;3.00;99.90
19580;DHT22;9936;51.040;13.918;2023-11-22T00:47:49;3.00;99.90
19580;DHT22;9936;51.040;13.918;2023-11-22T00:51:35;3.10;99.90
19580;DHT22;9936;51.040;13.918;2023-11-22T00:55:21;3.10;99.90
19580;DHT22;9936;51.040;13.918;2023-11-22T00:59:06;3.10;99.90
19580;DHT22;9936;51.040;13.918;2023-11-22T01:02:52;3.10;99.90
19580;DHT22;9936;51.040;13.918;2023-11-22T01:06:38;3.00;99.90
19580;DHT22;9936;51.040;13.918;2023-11-22T01:10:25;3.10;99.90
19580;DHT22;9936;51.040;13.918;2023-11-22T01:14:11;3.00;99.90
19580;DHT22;9936;51.040;13.918;2023-11-22T01:17:57;3.00;99.90
19580;DHT22;9936;51.040;13.918;2023-11-22T01:21:43;3.00;99.90
19580;DHT22;9936;51.040;13.918;2023-11-22T01:25:29;3.00;99.90
19580;DHT22;9936;51.040;13.918;2023-11-22T01:29:14;3.00;99.90
19580;DHT22;9936;51.040;13.918;2023-11-22T01:33:00;3.00;99.90
19580;DHT22;9936;51.040;13.918;2023-11-22T01:36:46;3.00;99.90
19580;DHT22;9936;51.040;13.918;2023-11-22T01:40:34;2.90;99.90
19580;DHT22;9936;51.040;13.918;2023-11-22T01:44:20;3.00;99.90
19580;DHT22;9936;51.040;13.918;2023-11-22T01:48:06;2.90;99.90
19580;DHT22;9936;51.040;13.918;2023-11-22T01:51:52;2.80;99.90
19580;DHT22;9936;51.040;13.918;2023-11-22T01:55:40;2.80;99.90
19580;DHT22;9936;51.040;13.918;2023-11-22T01:59:27;2.80;99.90
19580;DHT22;9936;51.040;13.918;2023-11-22T02:03:14;2.90;99.90
19580;DHT22;9936;51.040;13.918;2023-11-22T02:07:00;2.90;99.90
19580;DHT22;9936;51.040;13.918;2023-11-22T02:10:45;2.70;99.90
19580;DHT22;9936;51.040;13.918;2023-11-22T02:14:34;2.70;99.90
19580;DHT22;9936;51.040;13.918;2023-11-22T02:18:20;2.70;99.90
19580;DHT22;9936;51.040;13.918;2023-11-22T02:22:05;2.70;99.90
19580;DHT22;9936;51.040;13.918;2023-11-22T02:25:51;2.80;99.90
19580;DHT22;9936;51.040;13.918;2023-11-22T02:29:37;2.50;99.90
19580;DHT22;9936;51.040;13.918;2023-11-22T02:33:22;2.50;99.90
19580;DHT22;9936;51.040;13.918;2023-11-22T02:37:08;2.50;99.90
19580;DHT22;9936;51.040;13.918;2023-11-22T02:40:54;2.30;99.90
19580;DHT22;9936;51.040;13.918;2023-11-22T02:44:39;2.50;99.90
19580;DHT22;9936;51.040;13.918;2023-11-22T02:48:25;2.30;99.90
19580;DHT22;9936;51.040;13.918;2023-11-22T02:52:11;2.50;99.90
19580;DHT22;9936;51.040;13.918;2023-11-22T02:56:00;2.40;99.90
19580;DHT22;9936;51.040;13.918;2023-11-22T02:59:45;2.40;99.90
19580;DHT22;9936;51.040;13.918;2023-11-22T03:03:31;2.50;99.90
19580;DHT22;9936;51.040;13.918;2023-11-22T03:07:18;2.40;99.90
19580;DHT22;9936;51.040;13.918;2023-11-22T03:11:03;2.40;99.90
19580;DHT22;9936;51.040;13.918;2023-11-22T03:14:49;2.40;99.90
19580;DHT22;9936;51.040;13.918;2023-11-22T03:18:34;2.40;99.90
19580;DHT22;9936;51.040;13.918;2023-11-22T03:22:21;2.40;99.90
19580;DHT22;9936;51.040;13.918;2023-11-22T03:26:10;2.30;99.90
19580;DHT22;9936;51.040;13.918;2023-11-22T03:29:55;2.40;99.90
19580;DHT22;9936;51.040;13.918;2023-11-22T03:33:41;2.50;99.90
19580;DHT22;9936;51.040;13.918;2023-11-22T03:37:27;2.50;99.90
19580;DHT22;9936;51.040;13.918;2023-11-22T03:41:13;2.50;99.90
19580;DHT22;9936;51.040;13.918;2023-11-22T03:44:59;2.60;99.90
19580;DHT22;9936;51.040;13.918;2023-11-22T03:48:45;2.50;99.90
19580;DHT22;9936;51.040;13.918;2023-11-22T03:52:30;2.50;99.90
19580;DHT22;9936;51.040;13.918;2023-11-22T03:56:16;2.40;99.90
19580;DHT22;9936;51.040;13.918;2023-11-22T04:00:02;2.40;99.90
19580;DHT22;9936;51.040;13.918;2023-11-22T04:03:48;2.40;99.90
19580;DHT22;9936;51.040;13.918;2023-11-22T04:07:34;2.30;99.90
19580;DHT22;9936;51.040;13.918;2023-11-22T04:11:19;2.20;99.90
19580;DHT22;9936;51.040;13.918;2023-11-22T04:15:07;2.20;99.90
19580;DHT22;9936;51.040;13.918;2023-11-22T04:18:56;2.20;99.90
19580;DHT22;9936;51.040;13.918;2023-11-22T04:22:44;2.30;99.90
19580;DHT22;9936;51.040;13.918;2023-11-22T04:26:38;2.30;99.90
19580;DHT22;9936;51.040;13.918;2023-11-22T04:30:24;2.10;99.90
19580;DHT22;9936;51.040;13.918;2023-11-22T04:34:10;2.20;99.90
19580;DHT22;9936;51.040;13.918;2023-11-22T04:37:55;2.20;99.90
19580;DHT22;9936;51.040;13.918;2023-11-22T04:41:41;2.20;99.90
19580;DHT22;9936;51.040;13.918;2023-11-22T04:45:26;2.40;99.90
19580;DHT22;9936;51.040;13.918;2023-11-22T04:49:12;2.00;99.90
19580;DHT22;9936;51.040;13.918;2023-11-22T04:52:59;2.10;99.90
19580;DHT22;9936;51.040;13.918;2023-11-22T04:56:46;2.00;99.90
19580;DHT22;9936;51.040;13.918;2023-11-22T05:00:33;1.90;99.90
19580;DHT22;9936;51.040;13.918;2023-11-22T05:04:18;2.00;99.90
19580;DHT22;9936;51.040;13.918;2023-11-22T05:08:04;2.00;99.90
19580;DHT22;9936;51.040;13.918;2023-11-22T05:11:50;2.00;99.90
19580;DHT22;9936;51.040;13.918;2023-11-22T05:15:37;2.10;99.90
19580;DHT22;9936;51.040;13.918;2023-11-22T05:19:23;2.10;99.90
19580;DHT22;9936;51.040;13.918;2023-11-22T05:23:08;2.00;99.90
19580;DHT22;9936;51.040;13.918;2023-11-22T05:26:54;2.00;99.90
19580;DHT22;9936;51.040;13.918;2023-11-22T05:30:40;2.10;99.90
19580;DHT22;9936;51.040;13.918;2023-11-22T05:34:25;2.10;99.90
19580;DHT22;9936;51.040;13.918;2023-11-22T05:38:11;2.10;99.90
19580;DHT22;9936;51.040;13.918;2023-11-22T05:41:57;2.10;99.90
19580;DHT22;9936;51.040;13.918;2023-11-22T05:45:43;2.10;99.90
19580;DHT22;9936;51.040;13.918;2023-11-22T05:49:28;2.10;99.90
19580;DHT22;9936;51.040;13.918;2023-11-22T05:53:14;2.20;99.90
19580;DHT22;9936;51.040;13.918;2023-11-22T05:57:15;2.30;99.90
19580;DHT22;9936;51.040;13.918;2023-11-22T06:01:01;2.20;99.90
19580;DHT22;9936;51.040;13.918;2023-11-22T06:04:53;2.20;99.90
19580;DHT22;9936;51.040;13.918;2023-11-22T06:08:40;2.20;99.90
19580;DHT22;9936;51.040;13.918;2023-11-22T06:12:25;2.10;99.90
19580;DHT22;9936;51.040;13.918;2023-11-22T06:16:11;2.10;99.90
19580;DHT22;9936;51.040;13.918;2023-11-22T06:19:57;2.00;99.90
19580;DHT22;9936;51.040;13.918;2023-11-22T06:23:43;2.00;99.90
19580;DHT22;9936;51.040;13.918;2023-11-22T06:27:28;1.90;99.90
19580;DHT22;9936;51.040;13.918;2023-11-22T06:31:14;2.00;99.90
19580;DHT22;9936;51.040;13.918;2023-11-22T06:35:00;2.00;99.90
19580;DHT22;9936;51.040;13.918;2023-11-22T06:38:49;2.00;99.90
19580;DHT22;9936;51.040;13.918;2023-11-22T06:42:36;2.00;99.90
19580;DHT22;9936;51.040;13.918;2023-11-22T06:46:28;2.10;99.90
19580;DHT22;9936;51.040;13.918;2023-11-22T06:50:17;2.00;99.90
19580;DHT22;9936;51.040;13.918;2023-11-22T06:54:08;1.90;99.90
19580;DHT22;9936;51.040;13.918;2023-11-22T06:57:53;1.90;99.90
19580;DHT22;9936;51.040;13.918;2023-11-22T07:01:39;1.90;99.90
19580;DHT22;9936;51.040;13.918;2023-11-22T07:05:43;1.90;99.90
19580;DHT22;9936;51.040;13.918;2023-11-22T07:09:32;1.90;99.90
19580;DHT22;9936;51.040;13.918;2023-11-22T07:13:24;2.00;99.90
19580;DHT22;9936;51.040;13.918;2023-11-22T07:17:13;2.00;99.90
19580;DHT22;9936;51.040;13.918;2023-11-22T07:21:00;2.00;99.90
19580;DHT22;9936;51.040;13.918;2023-11-22T07:24:49;2.00;99.90
19580;DHT22;9936;51.040;13.918;2023-11-22T07:28:50;1.90;99.90
19580;DHT22;9936;51.040;13.918;2023-11-22T07:32:36;1.90;99.90
19580;DHT22;9936;51.040;13.918;2023-11-22T07:36:22;1.80;99.90
19580;DHT22;9936;51.040;13.918;2023-11-22T07:40:08;1.80;99.90
19580;DHT22;9936;51.040;13.918;2023-11-22T07:44:02;1.80;99.90
19580;DHT22;9936;51.040;13.918;2023-11-22T07:47:48;1.70;99.90
19580;DHT22;9936;51.040;13.918;2023-11-22T07:51:34;1.70;99.90
19580;DHT22;9936;51.040;13.918;2023-11-22T07:55:25;1.70;99.90
19580;DHT22;9936;51.040;13.918;2023-11-22T07:59:11;1.80;99.90
19580;DHT22;9936;51.040;13.918;2023-11-22T08:03:07;1.80;99.90
19580;DHT22;9936;51.040;13.918;2023-11-22T08:06:53;1.70;99.90
19580;DHT22;9936;51.040;13.918;2023-11-22T08:10:42;1.80;99.90
19580;DHT22;9936;51.040;13.918;2023-11-22T08:14:32;1.80;99.90
19580;DHT22;9936;51.040;13.918;2023-11-22T08:18:26;1.90;99.90
19580;DHT22;9936;51.040;13.918;2023-11-22T08:22:12;1.70;99.90
19580;DHT22;9936;51.040;13.918;2023-11-22T08:25:59;1.80;99.90
19580;DHT22;9936;51.040;13.918;2023-11-22T08:29:47;1.80;99.90
19580;DHT22;9936;51.040;13.918;2023-11-22T08:33:33;1.80;99.90
19580;DHT22;9936;51.040;13.918;2023-11-22T08:37:19;1.60;99.90
19580;DHT22;9936;51.040;13.918;2023-11-22T08:41:16;1.60;99.90
19580;DHT22;9936;51.040;13.918;2023-11-22T08:45:05;1.60;99.90
19580;DHT22;9936;51.040;13.918;2023-11-22T08:48:53;1.50;99.90
19580;DHT22;9936;51.040;13.918;2023-11-22T08:52:47;1.50;99.90
19580;DHT22;9936;51.040;13.918;2023-11-22T08:56:34;1.50;99.90
19580;DHT22;9936;51.040;13.918;2023-11-22T09:00:21;1.40;99.90
19580;DHT22;9936;51.040;13.918;2023-11-22T09:04:24;1.50;99.90
19580;DHT22;9936;51.040;13.918;2023-11-22T09:08:18;1.50;99.90
19580;DHT22;9936;51.040;13.918;2023-11-22T09:12:11;1.50;99.90
19580;DHT22;9936;51.040;13.918;2023-11-22T09:16:01;1.70;99.90
19580;DHT22;9936;51.040;13.918;2023-11-22T09:20:06;1.70;99.90
19580;DHT22;9936;51.040;13.918;2023-11-22T09:24:11;1.30;99.90
19580;DHT22;9936;51.040;13.918;2023-11-22T09:28:00;1.80;99.90
19580;DHT22;9936;51.040;13.918;2023-11-22T09:32:03;1.70;99.90
19580;DHT22;9936;51.040;13.918;2023-11-22T09:35:57;1.70;99.90
19580;DHT22;9936;51.040;13.918;2023-11-22T09:40:11;1.50;99.90
19580;DHT22;9936;51.040;13.918;2023-11-22T09:48:36;1.60;99.90
19580;DHT22;9936;51.040;13.918;2023-11-22T09:52:41;1.60;99.90
19580;DHT22;9936;51.040;13.918;2023-11-22T10:01:19;1.60;99.90
19580;DHT22;9936;51.040;13.918;2023-11-22T10:05:10;1.60;99.90
19580;DHT22;9936;51.040;13.918;2023-11-22T10:08:58;1.60;99.90
19580;DHT22;9936;51.040;13.918;2023-11-22T10:12:49;1.70;99.90
19580;DHT22;9936;51.040;13.918;2023-11-22T10:16:37;1.70;99.90
19580;DHT22;9936;51.040;13.918;2023-11-22T10:25:15;1.60;99.90
19580;DHT22;9936;51.040;13.918;2023-11-22T10:29:09;1.80;99.90
19580;DHT22;9936;51.040;13.918;2023-11-22T10:33:04;1.60;99.90
19580;DHT22;9936;51.040;13.918;2023-11-22T10:36:59;1.70;99.90
19580;DHT22;9936;51.040;13.918;2023-11-22T10:40:56;1.70;99.90
19580;DHT22;9936;51.040;13.918;2023-11-22T10:45:12;1.70;99.90
19580;DHT22;9936;51.040;13.918;2023-11-22T10:48:59;1.60;99.90
19580;DHT22;9936;51.040;13.918;2023-11-22T10:52:47;1.70;99.90
19580;DHT22;9936;51.040;13.918;2023-11-22T10:56:40;1.70;99.90
19580;DHT22;9936;51.040;13.918;2023-11-22T11:00:33;1.70;99.90
19580;DHT22;9936;51.040;13.918;2023-11-22T11:04:34;1.70;99.90
19580;DHT22;9936;51.040;13.918;2023-11-22T11:08:26;1.70;99.90
19580;DHT22;9936;51.040;13.918;2023-11-22T11:12:14;1.70;99.90
19580;DHT22;9936;51.040;13.918;2023-11-22T11:16:00;1.60;99.90
19580;DHT22;9936;51.040;13.918;2023-11-22T11:19:46;1.70;99.90
19580;DHT22;9936;51.040;13.918;2023-11-22T11:23:32;1.70;99.90
19580;DHT22;9936;51.040;13.918;2023-11-22T11:27:17;1.70;99.90
19580;DHT22;9936;51.040;13.918;2023-11-22T11:31:04;1.70;99.90
19580;DHT22;9936;51.040;13.918;2023-11-22T11:34:50;1.70;99.90
19580;DHT22;9936;51.040;13.918;2023-11-22T11:38:37;1.60;99.90
19580;DHT22;9936;51.040;13.918;2023-11-22T11:42:23;1.60;99.90
19580;DHT22;9936;51.040;13.918;2023-11-22T11:46:09;1.60;99.90
19580;DHT22;9936;51.040;13.918;2023-11-22T11:49:55;1.70;99.90
19580;DHT22;9936;51.040;13.918;2023-11-22T11:53:42;1.70;99.90
19580;DHT22;9936;51.040;13.918;2023-11-22T11:57:31;1.70;99.90
19580;DHT22;9936;51.040;13.918;2023-11-22T12:01:18;1.60;99.90
19580;DHT22;9936;51.040;13.918;2023-11-22T12:05:06;1.60;99.90
19580;DHT22;9936;51.040;13.918;2023-11-22T12:08:54;1.60;99.90
19580;DHT22;9936;51.040;13.918;2023-11-22T12:12:43;1.60;99.90
19580;DHT22;9936;51.040;13.918;2023-11-22T12:16:31;1.60;99.90
19580;DHT22;9936;51.040;13.918;2023-11-22T12:20:17;1.60;99.90
19580;DHT22;9936;51.040;13.918;2023-11-22T12:24:03;1.50;99.90
19580;DHT22;9936;51.040;13.918;2023-11-22T12:27:54;1.50;99.90
19580;DHT22;9936;51.040;13.918;2023-11-22T12:31:48;1.60;99.90
19580;DHT22;9936;51.040;13.918;2023-11-22T12:35:36;1.60;99.90
19580;DHT22;9936;51.040;13.918;2023-11-22T12:39:22;1.70;99.90
19580;DHT22;9936;51.040;13.918;2023-11-22T12:43:08;1.70;99.90
19580;DHT22;9936;51.040;13.918;2023-11-22T12:46:55;1.80;99.90
19580;DHT22;9936;51.040;13.918;2023-11-22T12:50:44;1.60;99.90
19580;DHT22;9936;51.040;13.918;2023-11-22T12:54:30;1.70;99.90
19580;DHT22;9936;51.040;13.918;2023-11-22T12:58:19;1.70;99.90
19580;DHT22;9936;51.040;13.918;2023-11-22T13:02:07;1.70;99.90
19580;DHT22;9936;51.040;13.918;2023-11-22T13:05:56;1.60;99.90
19580;DHT22;9936;51.040;13.918;2023-11-22T13:09:42;1.60;99.90
19580;DHT22;9936;51.040;13.918;2023-11-22T13:13:31;1.60;99.90
19580;DHT22;9936;51.040;13.918;2023-11-22T13:17:16;1.70;99.90
19580;DHT22;9936;51.040;13.918;2023-11-22T13:21:02;1.70;99.90
19580;DHT22;9936;51.040;13.918;2023-11-22T13:25:13;1.70;99.90
19580;DHT22;9936;51.040;13.918;2023-11-22T13:28:59;1.70;99.90
19580;DHT22;9936;51.040;13.918;2023-11-22T13:32:45;1.70;99.90
19580;DHT22;9936;51.040;13.918;2023-11-22T13:36:31;1.70;99.90
19580;DHT22;9936;51.040;13.918;2023-11-22T13:40:22;1.80;99.90
19580;DHT22;9936;51.040;13.918;2023-11-22T13:44:08;1.70;99.90
19580;DHT22;9936;51.040;13.918;2023-11-22T13:47:55;1.80;99.90
19580;DHT22;9936;51.040;13.918;2023-11-22T13:51:45;1.80;99.90
19580;DHT22;9936;51.040;13.918;2023-11-22T13:55:37;1.80;99.90
19580;DHT22;9936;51.040;13.918;2023-11-22T13:59:26;1.80;99.90
19580;DHT22;9936;51.040;13.918;2023-11-22T14:03:19;1.80;99.90
19580;DHT22;9936;51.040;13.918;2023-11-22T14:07:13;1.70;99.90
19580;DHT22;9936;51.040;13.918;2023-11-22T14:10:59;1.70;99.90
19580;DHT22;9936;51.040;13.918;2023-11-22T14:14:45;1.70;99.90
19580;DHT22;9936;51.040;13.918;2023-11-22T14:18:30;1.70;99.90
19580;DHT22;9936;51.040;13.918;2023-11-22T14:22:22;1.70;99.90
19580;DHT22;9936;51.040;13.918;2023-11-22T14:26:08;1.70;99.90
19580;DHT22;9936;51.040;13.918;2023-11-22T14:29:54;1.70;99.90
19580;DHT22;9936;51.040;13.918;2023-11-22T14:33:44;1.70;99.90
19580;DHT22;9936;51.040;13.918;2023-11-22T14:37:30;1.70;99.90
19580;DHT22;9936;51.040;13.918;2023-11-22T14:41:16;1.70;99.90
19580;DHT22;9936;51.040;13.918;2023-11-22T14:45:02;1.80;99.90
19580;DHT22;9936;51.040;13.918;2023-11-22T14:48:48;1.70;99.90
19580;DHT22;9936;51.040;13.918;2023-11-22T14:52:34;1.70;99.90
19580;DHT22;9936;51.040;13.918;2023-11-22T14:56:20;1.70;99.90
19580;DHT22;9936;51.040;13.918;2023-11-22T15:00:06;1.70;99.90
19580;DHT22;9936;51.040;13.918;2023-11-22T15:03:55;1.70;99.90
19580;DHT22;9936;51.040;13.918;2023-11-22T15:07:41;1.60;99.90
19580;DHT22;9936;51.040;13.918;2023-11-22T15:11:27;1.50;99.90
19580;DHT22;9936;51.040;13.918;2023-11-22T15:15:13;1.50;99.90
19580;DHT22;9936;51.040;13.918;2023-11-22T15:18:59;1.40;99.90
19580;DHT22;9936;51.040;13.918;2023-11-22T15:22:47;1.40;99.90
19580;DHT22;9936;51.040;13.918;2023-11-22T15:26:32;1.40;99.90
19580;DHT22;9936;51.040;13.918;2023-11-22T15:30:19;1.30;99.90
19580;DHT22;9936;51.040;13.918;2023-11-22T15:34:06;1.30;99.90
19580;DHT22;9936;51.040;13.918;2023-11-22T15:37:52;1.20;99.90
19580;DHT22;9936;51.040;13.918;2023-11-22T15:41:38;1.10;99.90
19580;DHT22;9936;51.040;13.918;2023-11-22T15:45:54;1.00;99.90
19580;DHT22;9936;51.040;13.918;2023-11-22T15:49:40;0.90;99.90
19580;DHT22;9936;51.040;13.918;2023-11-22T15:53:32;0.80;99.90
19580;DHT22;9936;51.040;13.918;2023-11-22T15:57:25;0.90;99.90
19580;DHT22;9936;51.040;13.918;2023-11-22T16:01:11;0.80;99.90
19580;DHT22;9936;51.040;13.918;2023-11-22T16:05:14;1.00;99.90
19580;DHT22;9936;51.040;13.918;2023-11-22T16:08:59;0.90;99.90
19580;DHT22;9936;51.040;13.918;2023-11-22T16:12:48;0.80;99.90
19580;DHT22;9936;51.040;13.918;2023-11-22T16:16:38;0.80;99.90
19580;DHT22;9936;51.040;13.918;2023-11-22T16:20:24;0.70;99.90
19580;DHT22;9936;51.040;13.918;2023-11-22T16:24:13;0.80;99.90
19580;DHT22;9936;51.040;13.918;2023-11-22T16:28:32;0.70;99.90
19580;DHT22;9936;51.040;13.918;2023-11-22T16:32:31;0.80;99.90
19580;DHT22;9936;51.040;13.918;2023-11-22T16:36:16;0.80;99.90
19580;DHT22;9936;51.040;13.918;2023-11-22T16:40:12;1.00;99.90
19580;DHT22;9936;51.040;13.918;2023-11-22T16:43:58;0.90;99.90
19580;DHT22;9936;51.040;13.918;2023-11-22T16:47:44;0.80;99.90
19580;DHT22;9936;51.040;13.918;2023-11-22T16:51:32;0.90;99.90
19580;DHT22;9936;51.040;13.918;2023-11-22T16:55:33;0.90;99.90
19580;DHT22;9936;51.040;13.918;2023-11-22T16:59:19;1.00;99.90
19580;DHT22;9936;51.040;13.918;2023-11-22T17:03:04;1.00;99.90
19580;DHT22;9936;51.040;13.918;2023-11-22T17:06:57;1.10;99.90
19580;DHT22;9936;51.040;13.918;2023-11-22T17:11:01;0.90;99.90
19580;DHT22;9936;51.040;13.918;2023-11-22T17:14:46;0.90;99.90
19580;DHT22;9936;51.040;13.918;2023-11-22T17:18:32;1.00;99.90
19580;DHT22;9936;51.040;13.918;2023-11-22T17:22:17;1.00;99.90
19580;DHT22;9936;51.040;13.918;2023-11-22T17:26:03;1.00;99.90
19580;DHT22;9936;51.040;13.918;2023-11-22T17:29:49;1.00;99.90
19580;DHT22;9936;51.040;13.918;2023-11-22T17:33:47;1.00;99.90
19580;DHT22;9936;51.040;13.918;2023-11-22T17:37:33;1.00;99.90
19580;DHT22;9936;51.040;13.918;2023-11-22T17:41:18;0.90;99.90
19580;DHT22;9936;51.040;13.918;2023-11-22T17:45:08;0.90;99.90
19580;DHT22;9936;51.040;13.918;2023-11-22T17:48:54;0.80;99.90
19580;DHT22;9936;51.040;13.918;2023-11-22T17:52:58;0.80;99.90
19580;DHT22;9936;51.040;13.918;2023-11-22T17:56:45;0.80;99.90
19580;DHT22;9936;51.040;13.918;2023-11-22T18:00:32;0.70;99.90
19580;DHT22;9936;51.040;13.918;2023-11-22T18:04:32;0.50;99.90
19580;DHT22;9936;51.040;13.918;2023-11-22T18:08:25;0.70;99.90
19580;DHT22;9936;51.040;13.918;2023-11-22T18:12:10;0.70;99.90
19580;DHT22;9936;51.040;13.918;2023-11-22T18:15:57;0.70;99.90
19580;DHT22;9936;51.040;13.918;2023-11-22T18:19:42;0.70;99.90
19580;DHT22;9936;51.040;13.918;2023-11-22T18:23:31;0.70;99.90
19580;DHT22;9936;51.040;13.918;2023-11-22T18:27:17;0.80;99.90
19580;DHT22;9936;51.040;13.918;2023-11-22T18:31:03;0.80;99.90
19580;DHT22;9936;51.040;13.918;2023-11-22T18:34:53;0.80;99.90
19580;DHT22;9936;51.040;13.918;2023-11-22T18:38:56;0.70;99.90
19580;DHT22;9936;51.040;13.918;2023-11-22T18:42:41;0.60;99.90
19580;DHT22;9936;51.040;13.918;2023-11-22T18:46:27;0.70;99.90
19580;DHT22;9936;51.040;13.918;2023-11-22T18:50:15;0.70;99.90
19580;DHT22;9936;51.040;13.918;2023-11-22T18:54:00;0.70;99.90
19580;DHT22;9936;51.040;13.918;2023-11-22T18:57:46;0.60;99.90
19580;DHT22;9936;51.040;13.918;2023-11-22T19:01:36;0.50;99.90
19580;DHT22;9936;51.040;13.918;2023-11-22T19:05:22;0.60;99.90
19580;DHT22;9936;51.040;13.918;2023-11-22T19:09:13;0.60;99.90
19580;DHT22;9936;51.040;13.918;2023-11-22T19:12:59;0.60;99.90
19580;DHT22;9936;51.040;13.918;2023-11-22T19:16:45;0.70;99.90
19580;DHT22;9936;51.040;13.918;2023-11-22T19:20:36;0.70;99.90
19580;DHT22;9936;51.040;13.918;2023-11-22T19:24:23;0.70;99.90
19580;DHT22;9936;51.040;13.918;2023-11-22T19:28:09;0.80;99.90
19580;DHT22;9936;51.040;13.918;2023-11-22T19:31:55;0.80;99.90
19580;DHT22;9936;51.040;13.918;2023-11-22T19:35:41;0.80;99.90
19580;DHT22;9936;51.040;13.918;2023-11-22T19:39:26;0.70;99.90
19580;DHT22;9936;51.040;13.918;2023-11-22T19:43:12;0.80;99.90
19580;DHT22;9936;51.040;13.918;2023-11-22T19:46:58;0.90;99.90
19580;DHT22;9936;51.040;13.918;2023-11-22T19:50:49;0.80;99.90
19580;DHT22;9936;51.040;13.918;2023-11-22T19:54:36;0.70;99.90
19580;DHT22;9936;51.040;13.918;2023-11-22T19:58:21;0.70;99.90
19580;DHT22;9936;51.040;13.918;2023-11-22T20:02:10;0.60;99.90
19580;DHT22;9936;51.040;13.918;2023-11-22T20:05:56;0.60;99.90
19580;DHT22;9936;51.040;13.918;2023-11-22T20:09:42;0.80;99.90
19580;DHT22;9936;51.040;13.918;2023-11-22T20:13:27;0.80;99.90
19580;DHT22;9936;51.040;13.918;2023-11-22T20:17:13;0.90;99.90
19580;DHT22;9936;51.040;13.918;2023-11-22T20:20:58;0.80;99.90
19580;DHT22;9936;51.040;13.918;2023-11-22T20:24:48;0.90;99.90
19580;DHT22;9936;51.040;13.918;2023-11-22T20:28:34;0.90;99.90
19580;DHT22;9936;51.040;13.918;2023-11-22T20:32:20;0.90;99.90
19580;DHT22;9936;51.040;13.918;2023-11-22T20:36:12;0.80;99.90
19580;DHT22;9936;51.040;13.918;2023-11-22T20:40:02;0.80;99.90
19580;DHT22;9936;51.040;13.918;2023-11-22T20:44:05;0.70;99.90
19580;DHT22;9936;51.040;13.918;2023-11-22T20:47:56;0.80;99.90
19580;DHT22;9936;51.040;13.918;2023-11-22T20:51:42;0.80;99.90
19580;DHT22;9936;51.040;13.918;2023-11-22T20:55:28;0.80;99.90
19580;DHT22;9936;51.040;13.918;2023-11-22T20:59:14;0.70;99.90
19580;DHT22;9936;51.040;13.918;2023-11-22T21:02:59;0.70;99.90
19580;DHT22;9936;51.040;13.918;2023-11-22T21:06:45;0.70;99.90
19580;DHT22;9936;51.040;13.918;2023-11-22T21:10:50;0.70;99.90
19580;DHT22;9936;51.040;13.918;2023-11-22T21:14:35;0.70;99.90
19580;DHT22;9936;51.040;13.918;2023-11-22T21:18:21;0.70;99.90
19580;DHT22;9936;51.040;13.918;2023-11-22T21:22:06;0.70;99.90
19580;DHT22;9936;51.040;13.918;2023-11-22T21:25:54;0.70;99.90
19580;DHT22;9936;51.040;13.918;2023-11-22T21:29:42;0.70;99.90
19580;DHT22;9936;51.040;13.918;2023-11-22T21:33:28;0.80;99.90
19580;DHT22;9936;51.040;13.918;2023-11-22T21:37:14;0.80;99.90
19580;DHT22;9936;51.040;13.918;2023-11-22T21:40:59;0.90;99.90
19580;DHT22;9936;51.040;13.918;2023-11-22T21:44:46;0.70;99.90
19580;DHT22;9936;51.040;13.918;2023-11-22T21:48:35;0.80;99.90
19580;DHT22;9936;51.040;13.918;2023-11-22T21:52:20;0.80;99.90
19580;DHT22;9936;51.040;13.918;2023-11-22T21:56:06;0.90;99.90
19580;DHT22;9936;51.040;13.918;2023-11-22T21:59:53;0.80;99.90
19580;DHT22;9936;51.040;13.918;2023-11-22T22:03:42;0.80;99.90
19580;DHT22;9936;51.040;13.918;2023-11-22T22:07:28;0.80;99.90
19580;DHT22;9936;51.040;13.918;2023-11-22T22:11:14;0.70;99.90
19580;DHT22;9936;51.040;13.918;2023-11-22T22:15:00;0.70;99.90
19580;DHT22;9936;51.040;13.918;2023-11-22T22:18:46;0.70;99.90
19580;DHT22;9936;51.040;13.918;2023-11-22T22:22:31;0.70;99.90
19580;DHT22;9936;51.040;13.918;2023-11-22T22:26:17;0.60;99.90
19580;DHT22;9936;51.040;13.918;2023-11-22T22:30:04;0.60;99.90
19580;DHT22;9936;51.040;13.918;2023-11-22T22:33:50;0.60;99.90
19580;DHT22;9936;51.040;13.918;2023-11-22T22:37:35;0.70;99.90
19580;DHT22;9936;51.040;13.918;2023-11-22T22:41:22;0.70;99.90
19580;DHT22;9936;51.040;13.918;2023-11-22T22:45:08;0.70;99.90
19580;DHT22;9936;51.040;13.918;2023-11-22T22:48:54;0.60;99.90
19580;DHT22;9936;51.040;13.918;2023-11-22T22:52:40;0.60;99.90
19580;DHT22;9936;51.040;13.918;2023-11-22T22:56:47;0.60;99.90
19580;DHT22;9936;51.040;13.918;2023-11-22T23:00:33;0.60;99.90
19580;DHT22;9936;51.040;13.918;2023-11-22T23:04:24;0.60;99.90
19580;DHT22;9936;51.040;13.918;2023-11-22T23:08:12;0.60;99.90
19580;DHT22;9936;51.040;13.918;2023-11-22T23:11:57;0.70;99.90
19580;DHT22;9936;51.040;13.918;2023-11-22T23:15:43;0.70;99.90
19580;DHT22;9936;51.040;13.918;2023-11-22T23:19:28;0.70;99.90
19580;DHT22;9936;51.040;13.918;2023-11-22T23:23:15;0.70;99.90
19580;DHT22;9936;51.040;13.918;2023-11-22T23:27:01;0.70;99.90
19580;DHT22;9936;51.040;13.918;2023-11-22T23:30:51;0.70;99.90
19580;DHT22;9936;51.040;13.918;2023-11-22T23:34:36;0.70;99.90
19580;DHT22;9936;51.040;13.918;2023-11-22T23:38:22;0.70;99.90
19580;DHT22;9936;51.040;13.918;2023-11-22T23:42:07;0.70;99.90
19580;DHT22;9936;51.040;13.918;2023-11-22T23:45:59;0.70;99.90
19580;DHT22;9936;51.040;13.918;2023-11-22T23:49:44;0.70;99.90
19580;DHT22;9936;51.040;13.918;2023-11-22T23:53:30;0.70;99.90
19580;DHT22;9936;51.040;13.918;2023-11-22T23:57:15;0.70;99.90
